createdAt,value
2022-08-05T00:00:22.980Z,99283.72
2022-08-05T00:03:07.486Z,99279.47
2022-08-05T00:06:06.427Z,99279.88
2022-08-05T00:08:34.798Z,99272.56
2022-08-05T00:11:20.720Z,99272.66
2022-08-05T00:13:55.843Z,99269.72
2022-08-05T00:16:36.592Z,99268.72
2022-08-05T00:19:10.510Z,99277.53
2022-08-05T00:21:37.577Z,99271.31
2022-08-05T00:24:10.344Z,99275.72
2022-08-05T00:26:39.053Z,99272.28
2022-08-05T00:29:13.873Z,99273.16
2022-08-05T00:32:10.162Z,99274.88
2022-08-05T00:34:54.674Z,99269.81
2022-08-05T00:37:16.290Z,99266.38
2022-08-05T00:39:44.263Z,99269.16
2022-08-05T00:42:38.378Z,99271.38
2022-08-05T00:45:11.778Z,99269.81
2022-08-05T00:47:56.905Z,99264.47
2022-08-05T00:50:25.702Z,99259.59
2022-08-05T00:52:55.072Z,99259.16
2022-08-05T00:55:42.345Z,99254.31
2022-08-05T00:58:12.615Z,99263.31
2022-08-05T01:00:42.174Z,99252.25
2022-08-05T01:03:22.228Z,99262.06
2022-08-05T01:05:54.642Z,99250.78
2022-08-05T01:08:40.259Z,99263.84
2022-08-05T01:11:37.007Z,99254.16
2022-08-05T01:14:15.428Z,99255.56
2022-08-05T01:17:03.296Z,99255.31
2022-08-05T01:20:02.424Z,99240.22
2022-08-05T01:23:15.237Z,99244.59
2022-08-05T01:26:02.903Z,99244.66
2022-08-05T01:28:51.828Z,99249.06
2022-08-05T01:31:44.540Z,99243.69
2022-08-05T01:34:22.501Z,99241.84
2022-08-05T01:37:25.893Z,99248.16
2022-08-05T01:39:59.205Z,99240.56
2022-08-05T01:42:29.061Z,99239.81
2022-08-05T01:45:02.236Z,99238.25
2022-08-05T01:47:39.360Z,99241.22
2022-08-05T01:50:15.435Z,99239.69
2022-08-05T01:52:50.134Z,99235.09
2022-08-05T01:55:22.317Z,99237.31
2022-08-05T01:58:29.350Z,99226.81
2022-08-05T02:00:48.879Z,99229.81
2022-08-05T02:03:34.490Z,99224.16
2022-08-05T02:06:36.955Z,99232.59
2022-08-05T02:08:58.180Z,99227.47
2022-08-05T02:12:16.161Z,99230.25
2022-08-05T02:14:52.510Z,99231.91
2022-08-05T02:18:33.296Z,99230.88
2022-08-05T02:20:33.674Z,99228.22
2022-08-05T02:23:11.660Z,99233.09
2022-08-05T02:25:49.215Z,99233.44
2022-08-05T02:28:28.816Z,99233.22
2022-08-05T02:31:06.047Z,99222.13
2022-08-05T02:33:42.102Z,99221.66
2022-08-05T02:36:15.631Z,99226.81
2022-08-05T02:38:53.573Z,99221.97
2022-08-05T02:41:28.394Z,99226.31
2022-08-05T02:44:13.251Z,99222.25
2022-08-05T02:46:58.753Z,99212.56
2022-08-05T02:49:37.976Z,99220.44
2022-08-05T02:52:30.148Z,99216.69
2022-08-05T02:55:01.883Z,99219.97
2022-08-05T02:58:10.668Z,99209.16
2022-08-05T03:00:21.754Z,99209.72
2022-08-05T03:02:50.564Z,99213.00
2022-08-05T03:05:21.872Z,99210.84
2022-08-05T03:08:09.698Z,99219.53
2022-08-05T03:10:36.949Z,99214.16
2022-08-05T03:13:16.819Z,99211.19
2022-08-05T03:15:48.489Z,99213.16
2022-08-05T03:18:19.087Z,99210.44
2022-08-05T03:20:57.467Z,99208.56
2022-08-05T03:23:25.679Z,99207.25
2022-08-05T03:26:04.366Z,99210.50
2022-08-05T03:28:41.023Z,99207.53
2022-08-05T03:31:09.069Z,99209.41
2022-08-05T03:33:51.255Z,99214.59
2022-08-05T03:36:30.255Z,99215.41
2022-08-05T03:38:58.719Z,99209.47
2022-08-05T03:41:26.320Z,99214.34
2022-08-05T03:44:11.516Z,99208.94
2022-08-05T03:46:39.441Z,99207.31
2022-08-05T03:49:06.750Z,99208.94
2022-08-05T03:52:38.456Z,99210.00
2022-08-05T03:56:04.437Z,99210.53
2022-08-05T03:57:52.702Z,99222.69
2022-08-05T04:00:26.697Z,99213.22
2022-08-05T04:02:58.395Z,99213.19
2022-08-05T04:05:33.935Z,99215.34
2022-08-05T04:08:30.234Z,99222.31
2022-08-05T04:10:59.045Z,99206.31
2022-08-05T04:13:44.089Z,99214.41
2022-08-05T04:16:15.099Z,99207.03
2022-08-05T04:18:54.362Z,99218.63
2022-08-05T04:22:05.237Z,99207.72
2022-08-05T04:24:19.693Z,99215.47
2022-08-05T04:26:50.756Z,99209.19
2022-08-05T04:29:18.581Z,99212.91
2022-08-05T04:31:48.480Z,99216.31
2022-08-05T04:34:32.716Z,99216.16
2022-08-05T04:37:03.218Z,99217.09
2022-08-05T04:39:32.363Z,99216.41
2022-08-05T04:42:03.807Z,99221.16
2022-08-05T04:44:30.885Z,99215.56
2022-08-05T04:46:59.449Z,99215.34
2022-08-05T04:49:38.925Z,99208.94
2022-08-05T04:52:15.633Z,99201.09
2022-08-05T04:54:42.793Z,99194.31
2022-08-05T04:57:10.009Z,99197.66
2022-08-05T05:05:02.404Z,99204.25
2022-08-05T05:18:37.823Z,99195.19
2022-08-05T05:21:56.403Z,99194.09
2022-08-05T05:24:58.034Z,99188.97
2022-08-05T05:27:11.343Z,99190.03
2022-08-05T05:30:05.067Z,99193.88
2022-08-05T05:32:29.318Z,99199.97
2022-08-05T05:34:57.181Z,99204.88
2022-08-05T05:48:27.344Z,99195.97
2022-08-05T05:50:58.091Z,99195.28
2022-08-05T05:53:25.417Z,99192.53
2022-08-05T05:56:00.827Z,99190.06
2022-08-05T05:58:34.834Z,99200.34
2022-08-05T06:01:12.619Z,99194.00
2022-08-05T06:04:01.613Z,99193.22
2022-08-05T06:06:33.176Z,99182.41
2022-08-05T06:09:04.935Z,99179.38
2022-08-05T06:11:33.597Z,99177.34
2022-08-05T06:14:01.709Z,99181.06
2022-08-05T06:16:36.804Z,99179.97
2022-08-05T06:19:07.051Z,99181.84
2022-08-05T06:21:38.770Z,99191.50
2022-08-05T06:24:12.022Z,99194.50
2022-08-05T06:26:51.343Z,99189.97
2022-08-05T06:29:43.128Z,99184.00
2022-08-05T06:32:24.993Z,99182.41
2022-08-05T06:34:58.355Z,99179.84
2022-08-05T06:37:56.894Z,99177.78
2022-08-05T06:40:18.130Z,99178.19
2022-08-05T06:42:52.093Z,99176.75
2022-08-05T06:45:44.440Z,99178.09
2022-08-05T06:48:37.246Z,99172.25
2022-08-05T06:50:57.575Z,99173.53
2022-08-05T06:53:28.417Z,99168.03
2022-08-05T06:55:58.980Z,99166.81
2022-08-05T06:58:35.418Z,99166.06
2022-08-05T07:01:06.726Z,99165.56
2022-08-05T07:09:17.618Z,99154.53
2022-08-05T07:11:51.503Z,99155.84
2022-08-05T07:14:37.775Z,99161.34
2022-08-05T07:17:56.545Z,99144.34
2022-08-05T07:22:44.272Z,99144.16
2022-08-05T07:25:54.068Z,99150.25
2022-08-05T07:28:04.183Z,99152.81
2022-08-05T07:30:39.388Z,99162.44
2022-08-05T07:33:16.054Z,99152.97
2022-08-05T07:36:02.889Z,99154.63
2022-08-05T07:38:43.369Z,99145.88
2022-08-05T07:42:14.223Z,99152.03
2022-08-05T07:44:14.078Z,99150.31
2022-08-05T07:46:48.399Z,99161.16
2022-08-05T07:49:18.550Z,99138.97
2022-08-05T07:51:48.970Z,99141.56
2022-08-05T07:54:31.486Z,99140.81
2022-08-05T07:57:18.092Z,99141.94
2022-08-05T07:59:52.246Z,99144.28
2022-08-05T08:02:26.554Z,99132.00
2022-08-05T08:04:59.292Z,99128.63
2022-08-05T08:07:28.210Z,99125.13
2022-08-05T08:09:56.066Z,99130.06
2022-08-05T08:12:48.914Z,99128.06
2022-08-05T08:15:17.171Z,99126.94
2022-08-05T08:17:46.187Z,99127.88
2022-08-05T08:21:00.220Z,99127.19
2022-08-05T08:24:00.024Z,99128.91
2022-08-05T08:26:02.193Z,99131.38
2022-08-05T08:28:36.050Z,99128.22
2022-08-05T08:31:08.078Z,99134.56
2022-08-05T08:33:38.011Z,99136.16
2022-08-05T08:38:57.064Z,99130.63
2022-08-05T08:41:51.066Z,99129.47
2022-08-05T08:45:16.586Z,99129.06
2022-08-05T08:47:21.665Z,99122.28
